sensor_id;sensor_type;location;lat;lon;timestamp;P1;durP1;ratioP1;P2;durP2;ratioP2
2173;SDS011;1093;51.424;11.764;2023-07-02T00:01:28;4.50;;;3.40;;
2173;SDS011;1093;51.424;11.764;2023-07-02T00:04:03;3.90;;;3.00;;
2173;SDS011;1093;51.424;11.764;2023-07-02T00:06:41;5.33;;;3.50;;
2173;SDS011;1093;51.424;11.764;2023-07-02T00:09:15;4.47;;;3.37;;
2173;SDS011;1093;51.424;11.764;2023-07-02T00:11:45;4.40;;;3.40;;
2173;SDS011;1093;51.424;11.764;2023-07-02T00:14:17;5.07;;;4.30;;
2173;SDS011;1093;51.424;11.764;2023-07-02T00:16:58;6.13;;;4.27;;
2173;SDS011;1093;51.424;11.764;2023-07-02T00:19:27;10.73;;;4.03;;
2173;SDS011;1093;51.424;11.764;2023-07-02T00:21:59;4.47;;;3.73;;
2173;SDS011;1093;51.424;11.764;2023-07-02T00:24:29;4.97;;;4.13;;
2173;SDS011;1093;51.424;11.764;2023-07-02T00:26:58;4.53;;;3.80;;
2173;SDS011;1093;51.424;11.764;2023-07-02T00:29:31;6.33;;;4.43;;
2173;SDS011;1093;51.424;11.764;2023-07-02T00:32:07;10.63;;;4.57;;
2173;SDS011;1093;51.424;11.764;2023-07-02T00:34:34;6.20;;;4.63;;
2173;SDS011;1093;51.424;11.764;2023-07-02T00:37:11;7.80;;;3.80;;
2173;SDS011;1093;51.424;11.764;2023-07-02T00:39:43;4.73;;;4.30;;
2173;SDS011;1093;51.424;11.764;2023-07-02T00:42:11;4.37;;;3.67;;
2173;SDS011;1093;51.424;11.764;2023-07-02T00:44:42;6.30;;;4.47;;
2173;SDS011;1093;51.424;11.764;2023-07-02T00:47:17;8.93;;;5.30;;
2173;SDS011;1093;51.424;11.764;2023-07-02T00:49:51;6.40;;;5.80;;
2173;SDS011;1093;51.424;11.764;2023-07-02T00:52:20;5.40;;;4.70;;
2173;SDS011;1093;51.424;11.764;2023-07-02T00:54:56;5.20;;;4.03;;
2173;SDS011;1093;51.424;11.764;2023-07-02T00:57:25;8.43;;;4.80;;
2173;SDS011;1093;51.424;11.764;2023-07-02T00:59:57;5.27;;;3.83;;
2173;SDS011;1093;51.424;11.764;2023-07-02T01:02:28;6.10;;;4.43;;
2173;SDS011;1093;51.424;11.764;2023-07-02T01:04:55;6.53;;;4.77;;
2173;SDS011;1093;51.424;11.764;2023-07-02T01:07:26;7.70;;;5.03;;
2173;SDS011;1093;51.424;11.764;2023-07-02T01:09:53;4.80;;;4.00;;
2173;SDS011;1093;51.424;11.764;2023-07-02T01:12:24;5.20;;;4.40;;
2173;SDS011;1093;51.424;11.764;2023-07-02T01:14:59;5.70;;;4.87;;
2173;SDS011;1093;51.424;11.764;2023-07-02T01:17:31;4.30;;;3.90;;
2173;SDS011;1093;51.424;11.764;2023-07-02T01:20:07;8.47;;;4.63;;
2173;SDS011;1093;51.424;11.764;2023-07-02T01:22:35;6.70;;;5.03;;
2173;SDS011;1093;51.424;11.764;2023-07-02T01:25:02;5.70;;;5.10;;
2173;SDS011;1093;51.424;11.764;2023-07-02T01:27:30;5.80;;;4.90;;
2173;SDS011;1093;51.424;11.764;2023-07-02T01:30:00;4.07;;;3.40;;
2173;SDS011;1093;51.424;11.764;2023-07-02T01:32:28;6.30;;;4.20;;
2173;SDS011;1093;51.424;11.764;2023-07-02T01:34:56;5.97;;;5.10;;
2173;SDS011;1093;51.424;11.764;2023-07-02T01:37:27;5.07;;;4.43;;
2173;SDS011;1093;51.424;11.764;2023-07-02T01:40:02;7.20;;;4.70;;
2173;SDS011;1093;51.424;11.764;2023-07-02T01:42:31;5.30;;;4.67;;
2173;SDS011;1093;51.424;11.764;2023-07-02T01:44:58;5.27;;;4.07;;
2173;SDS011;1093;51.424;11.764;2023-07-02T01:47:25;5.60;;;5.00;;
2173;SDS011;1093;51.424;11.764;2023-07-02T01:49:53;7.90;;;5.47;;
2173;SDS011;1093;51.424;11.764;2023-07-02T01:52:21;7.37;;;5.50;;
2173;SDS011;1093;51.424;11.764;2023-07-02T01:54:51;6.70;;;4.83;;
2173;SDS011;1093;51.424;11.764;2023-07-02T01:57:19;6.13;;;4.83;;
2173;SDS011;1093;51.424;11.764;2023-07-02T01:59:46;8.30;;;4.30;;
2173;SDS011;1093;51.424;11.764;2023-07-02T02:02:13;5.37;;;4.60;;
2173;SDS011;1093;51.424;11.764;2023-07-02T02:04:41;7.13;;;4.43;;
2173;SDS011;1093;51.424;11.764;2023-07-02T02:07:12;10.20;;;5.67;;
2173;SDS011;1093;51.424;11.764;2023-07-02T02:09:40;7.60;;;5.37;;
2173;SDS011;1093;51.424;11.764;2023-07-02T02:12:10;8.73;;;4.70;;
2173;SDS011;1093;51.424;11.764;2023-07-02T02:14:39;5.60;;;4.53;;
2173;SDS011;1093;51.424;11.764;2023-07-02T02:17:08;4.87;;;4.37;;
2173;SDS011;1093;51.424;11.764;2023-07-02T02:19:36;5.60;;;4.83;;
2173;SDS011;1093;51.424;11.764;2023-07-02T02:22:03;5.23;;;4.20;;
2173;SDS011;1093;51.424;11.764;2023-07-02T02:24:30;6.77;;;4.80;;
2173;SDS011;1093;51.424;11.764;2023-07-02T02:26:59;15.93;;;5.03;;
2173;SDS011;1093;51.424;11.764;2023-07-02T02:29:30;8.77;;;4.47;;
2173;SDS011;1093;51.424;11.764;2023-07-02T02:31:57;5.17;;;4.40;;
2173;SDS011;1093;51.424;11.764;2023-07-02T02:34:25;7.60;;;4.60;;
2173;SDS011;1093;51.424;11.764;2023-07-02T02:36:53;6.00;;;4.50;;
2173;SDS011;1093;51.424;11.764;2023-07-02T02:39:21;6.20;;;4.00;;
2173;SDS011;1093;51.424;11.764;2023-07-02T02:41:49;5.87;;;4.40;;
2173;SDS011;1093;51.424;11.764;2023-07-02T02:44:16;6.20;;;4.27;;
2173;SDS011;1093;51.424;11.764;2023-07-02T02:46:44;5.07;;;4.43;;
2173;SDS011;1093;51.424;11.764;2023-07-02T02:49:10;8.70;;;4.60;;
2173;SDS011;1093;51.424;11.764;2023-07-02T02:51:39;5.07;;;4.47;;
2173;SDS011;1093;51.424;11.764;2023-07-02T02:54:06;4.33;;;3.90;;
2173;SDS011;1093;51.424;11.764;2023-07-02T02:56:34;5.17;;;4.53;;
2173;SDS011;1093;51.424;11.764;2023-07-02T02:59:00;4.90;;;4.40;;
2173;SDS011;1093;51.424;11.764;2023-07-02T03:01:28;5.70;;;4.47;;
2173;SDS011;1093;51.424;11.764;2023-07-02T03:03:57;6.93;;;5.13;;
2173;SDS011;1093;51.424;11.764;2023-07-02T03:06:25;5.23;;;4.73;;
2173;SDS011;1093;51.424;11.764;2023-07-02T03:08:51;5.50;;;4.63;;
2173;SDS011;1093;51.424;11.764;2023-07-02T03:11:18;5.87;;;4.70;;
2173;SDS011;1093;51.424;11.764;2023-07-02T03:13:45;6.37;;;5.20;;
2173;SDS011;1093;51.424;11.764;2023-07-02T03:16:12;5.57;;;4.57;;
2173;SDS011;1093;51.424;11.764;2023-07-02T03:18:39;5.33;;;4.83;;
2173;SDS011;1093;51.424;11.764;2023-07-02T03:21:08;5.27;;;4.30;;
2173;SDS011;1093;51.424;11.764;2023-07-02T03:23:35;6.70;;;4.40;;
2173;SDS011;1093;51.424;11.764;2023-07-02T03:26:02;4.93;;;4.23;;
2173;SDS011;1093;51.424;11.764;2023-07-02T03:28:29;6.87;;;4.50;;
2173;SDS011;1093;51.424;11.764;2023-07-02T03:30:56;5.20;;;4.60;;
2173;SDS011;1093;51.424;11.764;2023-07-02T03:33:23;9.03;;;4.90;;
2173;SDS011;1093;51.424;11.764;2023-07-02T03:35:49;5.13;;;4.23;;
2173;SDS011;1093;51.424;11.764;2023-07-02T03:38:17;6.23;;;4.80;;
2173;SDS011;1093;51.424;11.764;2023-07-02T03:40:44;5.53;;;5.00;;
2173;SDS011;1093;51.424;11.764;2023-07-02T03:43:11;5.43;;;4.47;;
2173;SDS011;1093;51.424;11.764;2023-07-02T03:45:38;7.80;;;4.77;;
2173;SDS011;1093;51.424;11.764;2023-07-02T03:48:05;7.03;;;5.40;;
2173;SDS011;1093;51.424;11.764;2023-07-02T03:50:32;6.20;;;5.60;;
2173;SDS011;1093;51.424;11.764;2023-07-02T03:52:59;7.40;;;6.70;;
2173;SDS011;1093;51.424;11.764;2023-07-02T03:55:27;6.50;;;5.80;;
2173;SDS011;1093;51.424;11.764;2023-07-02T03:57:54;8.40;;;6.03;;
2173;SDS011;1093;51.424;11.764;2023-07-02T04:00:21;9.60;;;6.40;;
2173;SDS011;1093;51.424;11.764;2023-07-02T04:02:49;8.73;;;6.40;;
2173;SDS011;1093;51.424;11.764;2023-07-02T04:05:15;6.13;;;5.53;;
2173;SDS011;1093;51.424;11.764;2023-07-02T04:07:42;9.70;;;6.50;;
2173;SDS011;1093;51.424;11.764;2023-07-02T04:10:09;7.30;;;5.40;;
2173;SDS011;1093;51.424;11.764;2023-07-02T04:12:37;7.73;;;6.67;;
2173;SDS011;1093;51.424;11.764;2023-07-02T04:15:04;10.00;;;6.23;;
2173;SDS011;1093;51.424;11.764;2023-07-02T04:17:32;6.83;;;6.23;;
2173;SDS011;1093;51.424;11.764;2023-07-02T04:19:59;10.47;;;5.93;;
2173;SDS011;1093;51.424;11.764;2023-07-02T04:22:28;7.50;;;6.60;;
2173;SDS011;1093;51.424;11.764;2023-07-02T04:24:55;11.97;;;7.07;;
2173;SDS011;1093;51.424;11.764;2023-07-02T04:27:22;6.60;;;6.00;;
2173;SDS011;1093;51.424;11.764;2023-07-02T04:29:50;7.27;;;6.60;;
2173;SDS011;1093;51.424;11.764;2023-07-02T04:32:19;7.53;;;6.77;;
2173;SDS011;1093;51.424;11.764;2023-07-02T04:34:46;8.50;;;7.70;;
2173;SDS011;1093;51.424;11.764;2023-07-02T04:37:13;7.83;;;7.03;;
2173;SDS011;1093;51.424;11.764;2023-07-02T04:39:40;12.90;;;7.57;;
2173;SDS011;1093;51.424;11.764;2023-07-02T04:42:07;12.60;;;6.60;;
2173;SDS011;1093;51.424;11.764;2023-07-02T04:44:35;14.20;;;8.67;;
2173;SDS011;1093;51.424;11.764;2023-07-02T04:47:03;9.90;;;9.00;;
2173;SDS011;1093;51.424;11.764;2023-07-02T04:49:29;10.53;;;7.53;;
2173;SDS011;1093;51.424;11.764;2023-07-02T04:51:56;15.60;;;9.03;;
2173;SDS011;1093;51.424;11.764;2023-07-02T04:54:23;9.43;;;8.53;;
2173;SDS011;1093;51.424;11.764;2023-07-02T04:56:49;11.10;;;8.53;;
2173;SDS011;1093;51.424;11.764;2023-07-02T04:59:16;11.50;;;10.30;;
2173;SDS011;1093;51.424;11.764;2023-07-02T05:01:43;9.77;;;8.77;;
2173;SDS011;1093;51.424;11.764;2023-07-02T05:04:11;9.00;;;8.10;;
2173;SDS011;1093;51.424;11.764;2023-07-02T05:06:39;8.97;;;7.80;;
2173;SDS011;1093;51.424;11.764;2023-07-02T05:09:05;8.73;;;8.03;;
2173;SDS011;1093;51.424;11.764;2023-07-02T05:11:32;12.40;;;9.07;;
2173;SDS011;1093;51.424;11.764;2023-07-02T05:13:59;11.03;;;9.23;;
2173;SDS011;1093;51.424;11.764;2023-07-02T05:16:26;11.03;;;9.47;;
2173;SDS011;1093;51.424;11.764;2023-07-02T05:18:53;10.07;;;8.70;;
2173;SDS011;1093;51.424;11.764;2023-07-02T05:21:21;10.00;;;9.00;;
2173;SDS011;1093;51.424;11.764;2023-07-02T05:23:48;15.90;;;8.00;;
2173;SDS011;1093;51.424;11.764;2023-07-02T05:26:15;9.50;;;8.03;;
2173;SDS011;1093;51.424;11.764;2023-07-02T05:28:42;8.80;;;7.60;;
2173;SDS011;1093;51.424;11.764;2023-07-02T05:31:09;10.77;;;9.10;;
2173;SDS011;1093;51.424;11.764;2023-07-02T05:33:36;9.73;;;8.13;;
2173;SDS011;1093;51.424;11.764;2023-07-02T05:36:04;9.53;;;8.20;;
2173;SDS011;1093;51.424;11.764;2023-07-02T05:38:32;8.87;;;7.97;;
2173;SDS011;1093;51.424;11.764;2023-07-02T05:40:59;13.67;;;9.43;;
2173;SDS011;1093;51.424;11.764;2023-07-02T05:43:26;10.37;;;6.90;;
2173;SDS011;1093;51.424;11.764;2023-07-02T05:45:57;7.73;;;6.90;;
2173;SDS011;1093;51.424;11.764;2023-07-02T05:48:29;10.73;;;7.53;;
2173;SDS011;1093;51.424;11.764;2023-07-02T05:50:56;8.70;;;7.80;;
2173;SDS011;1093;51.424;11.764;2023-07-02T05:53:24;6.70;;;6.10;;
2173;SDS011;1093;51.424;11.764;2023-07-02T05:55:53;7.53;;;6.50;;
2173;SDS011;1093;51.424;11.764;2023-07-02T05:58:20;7.80;;;6.77;;
2173;SDS011;1093;51.424;11.764;2023-07-02T06:00:47;6.63;;;6.03;;
2173;SDS011;1093;51.424;11.764;2023-07-02T06:03:14;5.83;;;5.33;;
2173;SDS011;1093;51.424;11.764;2023-07-02T06:05:45;6.37;;;5.33;;
2173;SDS011;1093;51.424;11.764;2023-07-02T06:08:13;8.77;;;6.53;;
2173;SDS011;1093;51.424;11.764;2023-07-02T06:10:40;11.60;;;5.63;;
2173;SDS011;1093;51.424;11.764;2023-07-02T06:13:08;8.93;;;5.67;;
2173;SDS011;1093;51.424;11.764;2023-07-02T06:15:35;7.33;;;5.40;;
2173;SDS011;1093;51.424;11.764;2023-07-02T06:18:01;10.13;;;5.13;;
2173;SDS011;1093;51.424;11.764;2023-07-02T06:20:28;9.27;;;4.87;;
2173;SDS011;1093;51.424;11.764;2023-07-02T06:22:56;5.47;;;4.33;;
2173;SDS011;1093;51.424;11.764;2023-07-02T06:25:22;4.90;;;4.33;;
2173;SDS011;1093;51.424;11.764;2023-07-02T06:27:49;6.50;;;4.33;;
2173;SDS011;1093;51.424;11.764;2023-07-02T06:30:18;4.63;;;4.20;;
2173;SDS011;1093;51.424;11.764;2023-07-02T06:32:44;4.70;;;4.30;;
2173;SDS011;1093;51.424;11.764;2023-07-02T06:35:11;5.60;;;4.27;;
2173;SDS011;1093;51.424;11.764;2023-07-02T06:37:39;4.70;;;4.20;;
2173;SDS011;1093;51.424;11.764;2023-07-02T06:40:09;4.60;;;3.53;;
2173;SDS011;1093;51.424;11.764;2023-07-02T06:42:39;5.67;;;3.67;;
2173;SDS011;1093;51.424;11.764;2023-07-02T06:45:09;3.63;;;3.23;;
2173;SDS011;1093;51.424;11.764;2023-07-02T06:47:42;4.60;;;3.90;;
2173;SDS011;1093;51.424;11.764;2023-07-02T06:50:09;3.70;;;3.40;;
2173;SDS011;1093;51.424;11.764;2023-07-02T06:52:36;6.47;;;4.00;;
2173;SDS011;1093;51.424;11.764;2023-07-02T06:55:03;6.37;;;3.60;;
2173;SDS011;1093;51.424;11.764;2023-07-02T06:57:31;8.37;;;3.10;;
2173;SDS011;1093;51.424;11.764;2023-07-02T06:59:59;3.87;;;3.50;;
2173;SDS011;1093;51.424;11.764;2023-07-02T07:02:26;8.00;;;3.10;;
2173;SDS011;1093;51.424;11.764;2023-07-02T07:04:54;6.50;;;4.20;;
2173;SDS011;1093;51.424;11.764;2023-07-02T07:07:22;4.20;;;3.17;;
2173;SDS011;1093;51.424;11.764;2023-07-02T07:09:49;3.70;;;3.13;;
2173;SDS011;1093;51.424;11.764;2023-07-02T07:12:15;4.57;;;3.53;;
2173;SDS011;1093;51.424;11.764;2023-07-02T07:14:42;5.47;;;3.77;;
2173;SDS011;1093;51.424;11.764;2023-07-02T07:17:09;3.77;;;3.37;;
2173;SDS011;1093;51.424;11.764;2023-07-02T07:19:39;5.80;;;3.90;;
2173;SDS011;1093;51.424;11.764;2023-07-02T07:22:09;4.07;;;3.20;;
2173;SDS011;1093;51.424;11.764;2023-07-02T07:24:36;5.90;;;2.80;;
2173;SDS011;1093;51.424;11.764;2023-07-02T07:27:05;4.70;;;3.37;;
2173;SDS011;1093;51.424;11.764;2023-07-02T07:29:32;4.07;;;3.30;;
2173;SDS011;1093;51.424;11.764;2023-07-02T07:31:58;4.43;;;3.80;;
2173;SDS011;1093;51.424;11.764;2023-07-02T07:34:27;5.10;;;3.93;;
2173;SDS011;1093;51.424;11.764;2023-07-02T07:36:56;6.33;;;3.70;;
2173;SDS011;1093;51.424;11.764;2023-07-02T07:39:25;5.70;;;3.43;;
2173;SDS011;1093;51.424;11.764;2023-07-02T07:41:52;4.43;;;3.50;;
2173;SDS011;1093;51.424;11.764;2023-07-02T07:44:18;4.27;;;3.30;;
2173;SDS011;1093;51.424;11.764;2023-07-02T07:46:45;4.23;;;3.30;;
2173;SDS011;1093;51.424;11.764;2023-07-02T07:49:13;3.97;;;2.80;;
2173;SDS011;1093;51.424;11.764;2023-07-02T07:51:40;8.50;;;4.10;;
2173;SDS011;1093;51.424;11.764;2023-07-02T07:54:07;3.37;;;3.07;;
2173;SDS011;1093;51.424;11.764;2023-07-02T07:56:36;5.00;;;3.93;;
2173;SDS011;1093;51.424;11.764;2023-07-02T07:59:08;4.80;;;4.37;;
2173;SDS011;1093;51.424;11.764;2023-07-02T08:01:36;7.70;;;3.60;;
2173;SDS011;1093;51.424;11.764;2023-07-02T08:04:03;5.40;;;4.03;;
2173;SDS011;1093;51.424;11.764;2023-07-02T08:06:30;5.50;;;3.70;;
2173;SDS011;1093;51.424;11.764;2023-07-02T08:08:58;5.43;;;3.70;;
2173;SDS011;1093;51.424;11.764;2023-07-02T08:11:25;4.50;;;4.10;;
2173;SDS011;1093;51.424;11.764;2023-07-02T08:13:55;4.27;;;3.80;;
2173;SDS011;1093;51.424;11.764;2023-07-02T08:16:23;6.57;;;4.30;;
2173;SDS011;1093;51.424;11.764;2023-07-02T08:18:51;4.70;;;3.60;;
2173;SDS011;1093;51.424;11.764;2023-07-02T08:21:19;8.83;;;5.33;;
2173;SDS011;1093;51.424;11.764;2023-07-02T08:23:45;6.63;;;4.83;;
2173;SDS011;1093;51.424;11.764;2023-07-02T08:26:13;7.90;;;3.70;;
2173;SDS011;1093;51.424;11.764;2023-07-02T08:28:45;8.87;;;4.70;;
2173;SDS011;1093;51.424;11.764;2023-07-02T08:31:14;6.37;;;4.47;;
2173;SDS011;1093;51.424;11.764;2023-07-02T08:33:48;10.10;;;5.43;;
2173;SDS011;1093;51.424;11.764;2023-07-02T08:36:24;11.50;;;5.00;;
2173;SDS011;1093;51.424;11.764;2023-07-02T08:38:56;6.63;;;5.97;;
2173;SDS011;1093;51.424;11.764;2023-07-02T08:41:41;6.53;;;4.70;;
2173;SDS011;1093;51.424;11.764;2023-07-02T08:44:13;7.10;;;5.03;;
2173;SDS011;1093;51.424;11.764;2023-07-02T08:46:47;5.10;;;4.60;;
2173;SDS011;1093;51.424;11.764;2023-07-02T08:49:21;6.53;;;5.20;;
2173;SDS011;1093;51.424;11.764;2023-07-02T08:51:52;6.13;;;5.27;;
2173;SDS011;1093;51.424;11.764;2023-07-02T08:54:25;7.50;;;5.17;;
2173;SDS011;1093;51.424;11.764;2023-07-02T08:56:53;6.60;;;5.60;;
2173;SDS011;1093;51.424;11.764;2023-07-02T08:59:23;7.30;;;5.63;;
2173;SDS011;1093;51.424;11.764;2023-07-02T09:01:51;7.53;;;5.47;;
2173;SDS011;1093;51.424;11.764;2023-07-02T09:04:21;6.90;;;6.10;;
2173;SDS011;1093;51.424;11.764;2023-07-02T09:07:05;10.80;;;6.87;;
2173;SDS011;1093;51.424;11.764;2023-07-02T09:09:44;10.40;;;6.40;;
2173;SDS011;1093;51.424;11.764;2023-07-02T09:12:24;8.80;;;6.67;;
2173;SDS011;1093;51.424;11.764;2023-07-02T09:15:00;12.57;;;5.90;;
2173;SDS011;1093;51.424;11.764;2023-07-02T09:17:47;8.40;;;5.77;;
2173;SDS011;1093;51.424;11.764;2023-07-02T09:20:18;8.43;;;5.60;;
2173;SDS011;1093;51.424;11.764;2023-07-02T09:22:53;10.43;;;5.17;;
2173;SDS011;1093;51.424;11.764;2023-07-02T09:25:33;10.73;;;5.33;;
2173;SDS011;1093;51.424;11.764;2023-07-02T09:28:13;12.60;;;6.60;;
2173;SDS011;1093;51.424;11.764;2023-07-02T09:30:55;10.43;;;6.20;;
2173;SDS011;1093;51.424;11.764;2023-07-02T09:33:27;7.03;;;5.90;;
2173;SDS011;1093;51.424;11.764;2023-07-02T09:35:57;14.77;;;6.60;;
2173;SDS011;1093;51.424;11.764;2023-07-02T09:38:26;9.30;;;7.23;;
2173;SDS011;1093;51.424;11.764;2023-07-02T09:40:56;10.07;;;6.10;;
2173;SDS011;1093;51.424;11.764;2023-07-02T09:43:35;8.90;;;5.93;;
2173;SDS011;1093;51.424;11.764;2023-07-02T09:46:05;8.50;;;6.27;;
2173;SDS011;1093;51.424;11.764;2023-07-02T09:48:35;10.10;;;6.50;;
2173;SDS011;1093;51.424;11.764;2023-07-02T09:51:09;8.90;;;7.00;;
2173;SDS011;1093;51.424;11.764;2023-07-02T09:53:37;8.63;;;6.37;;
2173;SDS011;1093;51.424;11.764;2023-07-02T09:56:10;7.73;;;6.63;;
2173;SDS011;1093;51.424;11.764;2023-07-02T09:58:40;7.33;;;5.90;;
2173;SDS011;1093;51.424;11.764;2023-07-02T10:01:13;9.50;;;6.53;;
2173;SDS011;1093;51.424;11.764;2023-07-02T10:03:47;8.30;;;6.53;;
2173;SDS011;1093;51.424;11.764;2023-07-02T10:06:18;9.50;;;5.93;;
2173;SDS011;1093;51.424;11.764;2023-07-02T10:08:55;6.97;;;6.27;;
2173;SDS011;1093;51.424;11.764;2023-07-02T10:11:33;10.43;;;6.90;;
2173;SDS011;1093;51.424;11.764;2023-07-02T10:14:02;13.30;;;7.10;;
2173;SDS011;1093;51.424;11.764;2023-07-02T10:16:33;10.50;;;6.77;;
2173;SDS011;1093;51.424;11.764;2023-07-02T10:19:10;16.33;;;9.20;;
2173;SDS011;1093;51.424;11.764;2023-07-02T10:22:00;13.27;;;8.00;;
2173;SDS011;1093;51.424;11.764;2023-07-02T10:24:30;11.20;;;7.60;;
2173;SDS011;1093;51.424;11.764;2023-07-02T10:26:58;12.83;;;8.73;;
2173;SDS011;1093;51.424;11.764;2023-07-02T10:29:28;11.40;;;9.40;;
2173;SDS011;1093;51.424;11.764;2023-07-02T10:31:55;10.60;;;8.07;;
2173;SDS011;1093;51.424;11.764;2023-07-02T10:34:33;13.80;;;8.37;;
2173;SDS011;1093;51.424;11.764;2023-07-02T10:37:02;13.80;;;8.60;;
2173;SDS011;1093;51.424;11.764;2023-07-02T10:39:31;11.63;;;8.50;;
2173;SDS011;1093;51.424;11.764;2023-07-02T10:42:12;15.73;;;8.80;;
2173;SDS011;1093;51.424;11.764;2023-07-02T10:44:54;13.83;;;8.67;;
2173;SDS011;1093;51.424;11.764;2023-07-02T10:47:23;14.10;;;9.13;;
2173;SDS011;1093;51.424;11.764;2023-07-02T10:50:06;13.70;;;8.63;;
2173;SDS011;1093;51.424;11.764;2023-07-02T10:52:47;13.03;;;8.67;;
2173;SDS011;1093;51.424;11.764;2023-07-02T10:55:17;11.27;;;8.10;;
2173;SDS011;1093;51.424;11.764;2023-07-02T10:57:48;12.93;;;8.57;;
2173;SDS011;1093;51.424;11.764;2023-07-02T11:00:22;16.37;;;10.10;;
2173;SDS011;1093;51.424;11.764;2023-07-02T11:02:49;11.30;;;8.10;;
2173;SDS011;1093;51.424;11.764;2023-07-02T11:05:21;10.40;;;8.20;;
2173;SDS011;1093;51.424;11.764;2023-07-02T11:08:07;12.60;;;8.87;;
2173;SDS011;1093;51.424;11.764;2023-07-02T11:10:36;10.70;;;9.27;;
2173;SDS011;1093;51.424;11.764;2023-07-02T11:13:19;15.33;;;8.87;;
2173;SDS011;1093;51.424;11.764;2023-07-02T11:15:47;19.00;;;9.90;;
2173;SDS011;1093;51.424;11.764;2023-07-02T11:18:14;15.13;;;8.80;;
2173;SDS011;1093;51.424;11.764;2023-07-02T11:20:46;15.37;;;9.53;;
2173;SDS011;1093;51.424;11.764;2023-07-02T11:26:03;15.07;;;8.97;;
2173;SDS011;1093;51.424;11.764;2023-07-02T11:28:32;11.17;;;8.33;;
2173;SDS011;1093;51.424;11.764;2023-07-02T11:31:02;16.37;;;8.87;;
2173;SDS011;1093;51.424;11.764;2023-07-02T11:33:33;13.13;;;8.43;;
2173;SDS011;1093;51.424;11.764;2023-07-02T11:36:08;17.50;;;9.93;;
2173;SDS011;1093;51.424;11.764;2023-07-02T11:38:51;16.20;;;9.83;;
2173;SDS011;1093;51.424;11.764;2023-07-02T11:41:22;20.13;;;9.90;;
2173;SDS011;1093;51.424;11.764;2023-07-02T11:43:51;18.43;;;9.07;;
2173;SDS011;1093;51.424;11.764;2023-07-02T11:46:29;15.53;;;9.80;;
2173;SDS011;1093;51.424;11.764;2023-07-02T11:48:59;15.07;;;9.07;;
2173;SDS011;1093;51.424;11.764;2023-07-02T11:51:44;13.50;;;9.10;;
2173;SDS011;1093;51.424;11.764;2023-07-02T11:54:15;12.73;;;8.67;;
2173;SDS011;1093;51.424;11.764;2023-07-02T11:56:44;16.50;;;9.17;;
2173;SDS011;1093;51.424;11.764;2023-07-02T11:59:14;17.60;;;9.83;;
2173;SDS011;1093;51.424;11.764;2023-07-02T12:01:55;18.23;;;9.40;;
2173;SDS011;1093;51.424;11.764;2023-07-02T12:04:27;14.23;;;8.73;;
2173;SDS011;1093;51.424;11.764;2023-07-02T12:07:08;16.03;;;9.80;;
2173;SDS011;1093;51.424;11.764;2023-07-02T12:09:40;13.60;;;8.80;;
2173;SDS011;1093;51.424;11.764;2023-07-02T12:12:11;14.03;;;8.80;;
2173;SDS011;1093;51.424;11.764;2023-07-02T12:14:41;11.87;;;9.50;;
2173;SDS011;1093;51.424;11.764;2023-07-02T12:17:19;14.23;;;9.40;;
2173;SDS011;1093;51.424;11.764;2023-07-02T12:19:48;17.70;;;10.30;;
2173;SDS011;1093;51.424;11.764;2023-07-02T12:22:17;18.17;;;9.90;;
2173;SDS011;1093;51.424;11.764;2023-07-02T12:24:51;20.53;;;10.10;;
2173;SDS011;1093;51.424;11.764;2023-07-02T12:27:22;19.27;;;9.73;;
2173;SDS011;1093;51.424;11.764;2023-07-02T12:29:50;13.63;;;9.97;;
2173;SDS011;1093;51.424;11.764;2023-07-02T12:32:21;18.97;;;10.13;;
2173;SDS011;1093;51.424;11.764;2023-07-02T12:34:51;11.97;;;9.00;;
2173;SDS011;1093;51.424;11.764;2023-07-02T12:37:24;14.70;;;10.33;;
2173;SDS011;1093;51.424;11.764;2023-07-02T12:39:55;17.40;;;10.47;;
2173;SDS011;1093;51.424;11.764;2023-07-02T12:42:29;13.80;;;10.60;;
2173;SDS011;1093;51.424;11.764;2023-07-02T12:44:56;18.90;;;10.60;;
2173;SDS011;1093;51.424;11.764;2023-07-02T12:47:24;18.07;;;9.67;;
2173;SDS011;1093;51.424;11.764;2023-07-02T12:49:52;21.63;;;10.63;;
2173;SDS011;1093;51.424;11.764;2023-07-02T12:52:28;16.50;;;10.03;;
2173;SDS011;1093;51.424;11.764;2023-07-02T12:54:57;14.87;;;10.57;;
2173;SDS011;1093;51.424;11.764;2023-07-02T12:57:24;14.57;;;10.80;;
2173;SDS011;1093;51.424;11.764;2023-07-02T12:59:52;22.87;;;11.17;;
2173;SDS011;1093;51.424;11.764;2023-07-02T13:02:20;14.87;;;9.57;;
2173;SDS011;1093;51.424;11.764;2023-07-02T13:04:51;17.30;;;10.57;;
2173;SDS011;1093;51.424;11.764;2023-07-02T13:07:18;15.13;;;10.67;;
2173;SDS011;1093;51.424;11.764;2023-07-02T13:09:48;15.70;;;10.20;;
2173;SDS011;1093;51.424;11.764;2023-07-02T13:12:17;17.77;;;11.07;;
2173;SDS011;1093;51.424;11.764;2023-07-02T13:14:48;17.50;;;10.47;;
2173;SDS011;1093;51.424;11.764;2023-07-02T13:17:27;24.13;;;9.50;;
2173;SDS011;1093;51.424;11.764;2023-07-02T13:20:00;15.77;;;11.23;;
2173;SDS011;1093;51.424;11.764;2023-07-02T13:22:30;16.30;;;10.47;;
2173;SDS011;1093;51.424;11.764;2023-07-02T13:25:02;15.30;;;10.23;;
2173;SDS011;1093;51.424;11.764;2023-07-02T13:27:31;16.20;;;10.83;;
2173;SDS011;1093;51.424;11.764;2023-07-02T13:30:02;16.00;;;10.30;;
2173;SDS011;1093;51.424;11.764;2023-07-02T13:32:32;18.30;;;10.13;;
2173;SDS011;1093;51.424;11.764;2023-07-02T13:35:02;15.80;;;10.50;;
2173;SDS011;1093;51.424;11.764;2023-07-02T13:37:31;13.90;;;9.97;;
2173;SDS011;1093;51.424;11.764;2023-07-02T13:40:08;19.40;;;10.90;;
2173;SDS011;1093;51.424;11.764;2023-07-02T13:42:38;15.37;;;11.90;;
2173;SDS011;1093;51.424;11.764;2023-07-02T13:45:09;18.50;;;10.43;;
2173;SDS011;1093;51.424;11.764;2023-07-02T13:47:41;15.40;;;9.43;;
2173;SDS011;1093;51.424;11.764;2023-07-02T13:50:10;13.57;;;10.63;;
2173;SDS011;1093;51.424;11.764;2023-07-02T13:52:38;17.33;;;11.00;;
2173;SDS011;1093;51.424;11.764;2023-07-02T13:55:10;18.37;;;11.03;;
2173;SDS011;1093;51.424;11.764;2023-07-02T13:57:37;19.70;;;11.60;;
2173;SDS011;1093;51.424;11.764;2023-07-02T14:00:10;14.90;;;10.43;;
2173;SDS011;1093;51.424;11.764;2023-07-02T14:02:43;17.40;;;11.23;;
2173;SDS011;1093;51.424;11.764;2023-07-02T14:05:10;17.00;;;11.17;;
2173;SDS011;1093;51.424;11.764;2023-07-02T14:07:41;23.87;;;12.07;;
2173;SDS011;1093;51.424;11.764;2023-07-02T14:10:10;16.93;;;12.00;;
2173;SDS011;1093;51.424;11.764;2023-07-02T14:12:38;19.80;;;11.37;;
2173;SDS011;1093;51.424;11.764;2023-07-02T14:15:17;19.30;;;11.90;;
2173;SDS011;1093;51.424;11.764;2023-07-02T14:17:48;16.67;;;10.77;;
2173;SDS011;1093;51.424;11.764;2023-07-02T14:20:15;17.97;;;11.90;;
2173;SDS011;1093;51.424;11.764;2023-07-02T14:22:43;22.40;;;10.67;;
2173;SDS011;1093;51.424;11.764;2023-07-02T14:25:10;21.67;;;11.53;;
2173;SDS011;1093;51.424;11.764;2023-07-02T14:27:37;20.20;;;12.80;;
2173;SDS011;1093;51.424;11.764;2023-07-02T14:30:05;22.13;;;12.33;;
2173;SDS011;1093;51.424;11.764;2023-07-02T14:32:35;23.20;;;13.20;;
2173;SDS011;1093;51.424;11.764;2023-07-02T14:35:03;17.37;;;10.57;;
2173;SDS011;1093;51.424;11.764;2023-07-02T14:37:30;18.80;;;11.07;;
2173;SDS011;1093;51.424;11.764;2023-07-02T14:39:57;24.17;;;11.73;;
2173;SDS011;1093;51.424;11.764;2023-07-02T14:42:24;17.33;;;10.90;;
2173;SDS011;1093;51.424;11.764;2023-07-02T14:44:51;20.37;;;12.30;;
2173;SDS011;1093;51.424;11.764;2023-07-02T14:47:19;18.43;;;11.40;;
2173;SDS011;1093;51.424;11.764;2023-07-02T14:49:47;20.73;;;12.37;;
2173;SDS011;1093;51.424;11.764;2023-07-02T14:52:14;19.13;;;11.90;;
2173;SDS011;1093;51.424;11.764;2023-07-02T14:54:44;16.80;;;10.93;;
2173;SDS011;1093;51.424;11.764;2023-07-02T14:57:11;15.80;;;11.60;;
2173;SDS011;1093;51.424;11.764;2023-07-02T14:59:37;20.57;;;11.33;;
2173;SDS011;1093;51.424;11.764;2023-07-02T15:02:06;22.40;;;12.33;;
2173;SDS011;1093;51.424;11.764;2023-07-02T15:04:32;19.10;;;12.17;;
2173;SDS011;1093;51.424;11.764;2023-07-02T15:07:01;20.73;;;12.37;;
2173;SDS011;1093;51.424;11.764;2023-07-02T15:09:28;18.67;;;12.07;;
2173;SDS011;1093;51.424;11.764;2023-07-02T15:11:54;21.37;;;12.10;;